createdAt,value
2022-12-19T00:01:59.224Z,-1.70
2022-12-19T00:04:46.114Z,-1.60
2022-12-19T00:07:32.577Z,-1.70
2022-12-19T00:10:20.295Z,-1.60
2022-12-19T00:13:06.811Z,-1.50
2022-12-19T00:15:53.542Z,-1.40
2022-12-19T00:18:40.895Z,-1.30
2022-12-19T00:21:29.739Z,-1.20
2022-12-19T00:24:21.299Z,-1.10
2022-12-19T00:27:09.666Z,-1.10
2022-12-19T00:29:56.195Z,-1.00
2022-12-19T00:32:42.759Z,-0.90
2022-12-19T00:35:29.084Z,-0.90
2022-12-19T00:38:15.372Z,-0.90
2022-12-19T00:41:08.096Z,-0.90
2022-12-19T00:43:57.166Z,-0.90
2022-12-19T00:46:43.886Z,-0.80
2022-12-19T00:49:37.479Z,-0.80
2022-12-19T00:52:24.506Z,-0.80
2022-12-19T00:55:18.468Z,-0.90
2022-12-19T00:58:05.851Z,-0.70
2022-12-19T01:00:53.431Z,-0.70
2022-12-19T01:03:39.764Z,-0.60
2022-12-19T01:06:26.844Z,-0.70
2022-12-19T01:09:14.173Z,-0.50
2022-12-19T01:12:18.071Z,-0.60
2022-12-19T01:15:05.504Z,-0.50
2022-12-19T01:17:53.100Z,-0.50
2022-12-19T01:20:40.983Z,-0.60
2022-12-19T01:23:27.439Z,-0.50
2022-12-19T01:26:15.064Z,-0.40
2022-12-19T01:29:01.480Z,-0.40
2022-12-19T01:31:47.614Z,-0.50
2022-12-19T01:34:35.110Z,-0.50
2022-12-19T01:37:22.118Z,-0.50
2022-12-19T01:40:10.495Z,-0.50
2022-12-19T01:42:56.967Z,-0.50
2022-12-19T01:45:45.941Z,-0.40
2022-12-19T01:48:36.446Z,-0.30
2022-12-19T01:51:26.298Z,-0.30
2022-12-19T01:54:16.151Z,-0.30
2022-12-19T01:57:03.621Z,-0.30
2022-12-19T01:59:55.202Z,-0.30
2022-12-19T02:02:47.402Z,-0.40
2022-12-19T02:05:34.246Z,-0.30
2022-12-19T02:08:22.379Z,-0.30
2022-12-19T02:11:08.521Z,-0.30
2022-12-19T02:13:54.987Z,-0.20
2022-12-19T02:16:49.064Z,-0.20
2022-12-19T02:19:56.713Z,-0.20
2022-12-19T02:22:59.668Z,-0.10
2022-12-19T02:26:10.453Z,-0.10
2022-12-19T02:29:33.080Z,-0.20
2022-12-19T02:32:26.287Z,-0.10
2022-12-19T02:35:35.428Z,0.00
2022-12-19T02:38:29.224Z,0.00
2022-12-19T02:41:22.818Z,0.00
2022-12-19T02:44:10.158Z,0.10
2022-12-19T02:46:59.688Z,0.10
2022-12-19T02:49:47.641Z,0.10
2022-12-19T02:52:46.764Z,0.00
2022-12-19T02:55:40.024Z,0.10
2022-12-19T02:58:45.325Z,0.10
2022-12-19T03:01:46.157Z,0.10
2022-12-19T03:04:45.410Z,0.10
2022-12-19T03:07:38.332Z,0.10
2022-12-19T03:10:32.395Z,0.10
2022-12-19T03:13:22.688Z,0.20
2022-12-19T03:16:11.870Z,0.10
2022-12-19T03:18:58.776Z,0.20
2022-12-19T03:21:47.577Z,0.20
2022-12-19T03:24:35.727Z,0.20
2022-12-19T03:27:28.739Z,0.20
2022-12-19T03:30:15.824Z,0.30
2022-12-19T03:33:03.759Z,0.30
2022-12-19T03:35:51.489Z,0.20
2022-12-19T03:38:40.442Z,0.30
2022-12-19T03:41:42.292Z,0.30
2022-12-19T03:44:34.473Z,0.30
2022-12-19T03:47:25.102Z,0.40
2022-12-19T03:50:12.141Z,0.30
2022-12-19T03:53:07.456Z,0.40
2022-12-19T03:55:59.074Z,0.30
2022-12-19T03:58:52.384Z,0.40
2022-12-19T04:01:41.130Z,0.40
2022-12-19T04:04:29.109Z,0.40
2022-12-19T04:07:17.233Z,0.40
2022-12-19T04:10:07.061Z,0.40
2022-12-19T04:12:58.297Z,0.50
2022-12-19T04:15:52.534Z,0.60
2022-12-19T04:18:41.294Z,0.50
2022-12-19T04:21:32.839Z,0.60
2022-12-19T04:24:24.319Z,0.60
2022-12-19T04:27:11.983Z,0.60
2022-12-19T04:30:00.185Z,0.60
2022-12-19T04:32:48.637Z,0.60
2022-12-19T04:35:36.030Z,0.50
2022-12-19T04:38:22.501Z,0.50
2022-12-19T04:41:08.775Z,0.60
2022-12-19T04:43:54.918Z,0.60
2022-12-19T04:46:41.224Z,0.60
2022-12-19T04:49:29.217Z,0.50
2022-12-19T04:52:15.856Z,0.60
2022-12-19T04:55:02.205Z,0.70
2022-12-19T04:57:48.601Z,0.70
2022-12-19T05:00:35.361Z,0.70
2022-12-19T05:03:22.023Z,0.80
2022-12-19T05:06:12.604Z,0.80
2022-12-19T05:08:58.769Z,1.00
2022-12-19T05:11:45.467Z,1.00
2022-12-19T05:14:31.990Z,1.00
2022-12-19T05:17:18.462Z,1.00
2022-12-19T05:20:06.974Z,1.00
2022-12-19T05:22:54.899Z,1.00
2022-12-19T05:25:41.284Z,1.10
2022-12-19T05:28:27.874Z,1.20
2022-12-19T05:31:16.554Z,1.10
2022-12-19T05:34:02.925Z,1.10
2022-12-19T05:36:49.397Z,1.10
2022-12-19T05:39:36.920Z,1.10
2022-12-19T05:42:23.353Z,1.10
2022-12-19T05:45:10.370Z,1.00
2022-12-19T05:48:01.184Z,1.10
2022-12-19T05:50:51.319Z,1.10
2022-12-19T05:53:38.762Z,1.10
2022-12-19T05:56:26.666Z,1.10
2022-12-19T05:59:13.180Z,1.10
2022-12-19T06:01:59.469Z,1.00
2022-12-19T06:04:45.960Z,1.10
2022-12-19T06:07:32.184Z,1.10
2022-12-19T06:10:18.801Z,1.20
2022-12-19T06:13:06.173Z,1.20
2022-12-19T06:15:58.441Z,1.00
2022-12-19T06:18:45.966Z,1.10
2022-12-19T06:21:32.491Z,1.00
2022-12-19T06:24:18.764Z,1.00
2022-12-19T06:27:05.290Z,1.10
2022-12-19T06:29:53.173Z,1.00
2022-12-19T06:32:39.891Z,1.00
2022-12-19T06:35:26.296Z,1.10
2022-12-19T06:38:12.813Z,1.10
2022-12-19T06:41:16.803Z,1.10
2022-12-19T06:44:05.708Z,1.20
2022-12-19T06:46:54.858Z,1.20
2022-12-19T06:49:41.093Z,1.10
2022-12-19T06:52:27.330Z,1.10
2022-12-19T06:55:13.842Z,1.20
2022-12-19T06:57:59.973Z,1.30
2022-12-19T07:00:46.419Z,1.20
2022-12-19T07:03:39.218Z,1.30
2022-12-19T07:06:25.470Z,1.30
2022-12-19T07:09:11.723Z,1.40
2022-12-19T07:11:58.396Z,1.30
2022-12-19T07:14:47.732Z,1.40
2022-12-19T07:17:37.917Z,1.40
2022-12-19T07:20:26.392Z,1.50
2022-12-19T07:23:17.939Z,1.50
2022-12-19T07:26:04.666Z,1.60
2022-12-19T07:28:51.107Z,1.70
2022-12-19T07:31:37.440Z,1.70
2022-12-19T07:34:23.982Z,1.70
2022-12-19T07:37:11.572Z,1.80
2022-12-19T07:39:58.197Z,1.80
2022-12-19T07:42:44.960Z,1.80
2022-12-19T07:45:31.833Z,1.90
2022-12-19T07:48:18.301Z,1.90
2022-12-19T07:51:05.447Z,1.90
2022-12-19T07:53:53.188Z,1.90
2022-12-19T07:56:39.390Z,2.00
2022-12-19T07:59:31.288Z,2.00
2022-12-19T08:02:18.816Z,2.10
2022-12-19T08:05:06.682Z,2.00
2022-12-19T08:07:54.307Z,2.10
2022-12-19T08:10:42.473Z,2.00
2022-12-19T08:13:33.739Z,2.10
2022-12-19T08:16:25.659Z,2.10
2022-12-19T08:19:12.872Z,2.10
2022-12-19T08:21:59.450Z,2.10
2022-12-19T08:24:45.808Z,2.10
2022-12-19T08:27:34.623Z,2.20
2022-12-19T08:30:21.091Z,2.20
2022-12-19T08:33:07.316Z,2.20
2022-12-19T08:35:53.898Z,2.20
2022-12-19T08:38:40.579Z,2.20
2022-12-19T08:41:27.086Z,2.20
2022-12-19T08:44:15.409Z,2.20
2022-12-19T08:47:02.325Z,2.20
2022-12-19T08:49:48.665Z,2.20
2022-12-19T08:52:35.128Z,2.10
2022-12-19T08:55:21.359Z,2.10
2022-12-19T08:58:07.814Z,2.00
2022-12-19T09:01:03.297Z,2.00
2022-12-19T09:04:24.495Z,2.00
2022-12-19T09:06:57.916Z,2.00
2022-12-19T09:09:44.918Z,1.90
2022-12-19T09:12:31.406Z,1.90
2022-12-19T09:15:17.704Z,1.90
2022-12-19T09:18:05.267Z,1.80
2022-12-19T09:20:54.677Z,1.90
2022-12-19T09:23:41.786Z,1.80
2022-12-19T09:26:29.332Z,1.90
2022-12-19T09:29:21.725Z,1.70
2022-12-19T09:32:08.916Z,1.70
2022-12-19T09:34:56.744Z,1.70
2022-12-19T09:37:43.022Z,1.70
2022-12-19T09:40:34.093Z,1.70
2022-12-19T09:43:40.971Z,1.70
2022-12-19T09:46:40.518Z,1.60
2022-12-19T09:49:33.889Z,1.60
2022-12-19T09:52:33.135Z,1.70
2022-12-19T09:55:25.324Z,1.70
2022-12-19T09:58:17.055Z,1.80
2022-12-19T10:01:07.890Z,1.80
2022-12-19T10:04:01.074Z,1.80
2022-12-19T10:07:14.528Z,1.80
2022-12-19T10:12:25.363Z,1.90
2022-12-19T10:13:16.292Z,1.90
2022-12-19T10:16:10.928Z,1.90
2022-12-19T10:18:59.382Z,1.90
2022-12-19T10:22:18.199Z,2.00
2022-12-19T10:25:27.946Z,2.00
2022-12-19T10:28:26.536Z,2.00
2022-12-19T10:31:22.017Z,2.10
2022-12-19T10:37:25.687Z,2.10
2022-12-19T10:40:27.349Z,2.20
2022-12-19T10:43:32.839Z,2.20
2022-12-19T10:46:31.279Z,2.20
2022-12-19T10:49:19.081Z,2.30
2022-12-19T10:52:08.330Z,2.30
2022-12-19T10:54:54.903Z,2.30
2022-12-19T10:57:42.427Z,2.30
2022-12-19T11:03:19.954Z,2.30
2022-12-19T11:06:07.358Z,2.30
2022-12-19T11:08:53.691Z,2.30
2022-12-19T11:14:29.056Z,2.30
2022-12-19T11:20:06.372Z,2.50
2022-12-19T11:26:19.604Z,2.50
2022-12-19T11:29:41.596Z,2.50
2022-12-19T11:30:36.955Z,2.50
2022-12-19T11:30:45.991Z,2.50
2022-12-19T11:31:26.083Z,2.50
2022-12-19T11:34:14.473Z,2.60
2022-12-19T11:37:11.281Z,2.70
2022-12-19T11:40:02.917Z,2.70
2022-12-19T11:43:25.571Z,2.70
2022-12-19T11:46:06.601Z,2.60
2022-12-19T11:48:56.946Z,2.70
2022-12-19T11:51:51.840Z,2.80
2022-12-19T11:54:47.713Z,2.80
2022-12-19T11:57:36.939Z,2.80
2022-12-19T12:00:25.470Z,2.80
2022-12-19T12:04:01.900Z,2.90
2022-12-19T12:06:52.034Z,2.90
2022-12-19T12:11:57.736Z,3.00
2022-12-19T12:19:39.312Z,3.00
2022-12-19T12:26:43.841Z,3.00
2022-12-19T12:31:13.895Z,3.00
2022-12-19T12:31:17.978Z,3.10
2022-12-19T12:31:51.872Z,3.10
2022-12-19T12:31:52.578Z,3.00
2022-12-19T12:35:42.529Z,3.10
2022-12-19T12:39:20.938Z,3.20
2022-12-19T12:42:24.273Z,3.10
2022-12-19T12:45:21.192Z,3.20
2022-12-19T12:48:20.596Z,3.20
2022-12-19T12:51:09.234Z,3.20
2022-12-19T12:54:03.240Z,3.30
2022-12-19T12:56:49.853Z,3.20
2022-12-19T12:59:36.251Z,3.20
2022-12-19T13:02:28.186Z,3.20
2022-12-19T13:05:30.536Z,3.30
2022-12-19T13:08:38.670Z,3.30
2022-12-19T13:11:58.140Z,3.30
2022-12-19T13:14:50.516Z,3.30
2022-12-19T13:18:01.738Z,3.30
2022-12-19T13:20:48.987Z,3.40
2022-12-19T13:23:46.505Z,3.40
2022-12-19T13:26:50.113Z,3.40
2022-12-19T13:29:54.407Z,3.40
2022-12-19T13:33:09.087Z,3.40
2022-12-19T13:39:24.863Z,3.40
2022-12-19T13:39:50.927Z,3.40
2022-12-19T13:42:32.532Z,3.50
2022-12-19T13:45:25.146Z,3.40
2022-12-19T13:48:17.429Z,3.50
2022-12-19T13:51:08.433Z,3.60
2022-12-19T13:53:59.511Z,3.60
2022-12-19T13:56:48.244Z,3.50
2022-12-19T13:59:38.764Z,3.50
2022-12-19T14:02:30.441Z,3.50
2022-12-19T14:05:44.534Z,3.60
2022-12-19T14:08:33.335Z,3.60
2022-12-19T14:11:38.604Z,3.70
2022-12-19T14:14:47.063Z,3.70
2022-12-19T14:17:33.605Z,3.70
2022-12-19T14:22:06.687Z,3.60
2022-12-19T14:23:42.820Z,3.70
2022-12-19T14:28:20.037Z,3.70
2022-12-19T14:30:27.534Z,3.70
2022-12-19T14:33:41.970Z,3.60
2022-12-19T14:36:09.641Z,3.70
2022-12-19T14:39:23.967Z,3.70
2022-12-19T14:43:55.673Z,3.70
2022-12-19T14:53:51.487Z,3.70
2022-12-19T14:54:01.909Z,3.70
2022-12-19T14:54:40.653Z,3.70
2022-12-19T14:56:15.900Z,3.80
2022-12-19T14:58:53.487Z,3.70
2022-12-19T15:01:52.950Z,3.70
2022-12-19T15:04:51.894Z,3.80
2022-12-19T15:07:45.150Z,3.80
2022-12-19T15:11:03.852Z,3.90
2022-12-19T15:14:52.304Z,3.90
2022-12-19T15:16:47.850Z,3.90
2022-12-19T15:19:34.671Z,4.00
2022-12-19T15:22:21.800Z,3.90
2022-12-19T15:25:28.422Z,4.00
2022-12-19T15:28:18.041Z,4.00
2022-12-19T15:31:11.996Z,4.00
2022-12-19T15:34:33.610Z,4.00
2022-12-19T15:37:06.536Z,4.10
2022-12-19T15:39:52.997Z,4.20
2022-12-19T15:42:41.830Z,4.20
2022-12-19T15:45:29.154Z,4.20
2022-12-19T15:48:17.025Z,4.10
2022-12-19T15:51:04.920Z,4.20
2022-12-19T15:53:51.311Z,4.20
2022-12-19T15:56:39.780Z,4.20
2022-12-19T15:59:36.557Z,4.20
2022-12-19T16:02:27.995Z,4.30
2022-12-19T16:05:25.989Z,4.30
2022-12-19T16:08:14.784Z,4.40
2022-12-19T16:11:02.344Z,4.40
2022-12-19T16:13:52.430Z,4.40
2022-12-19T16:16:39.024Z,4.40
2022-12-19T16:19:27.630Z,4.40
2022-12-19T16:22:18.387Z,4.40
2022-12-19T16:25:07.592Z,4.40
2022-12-19T16:27:57.902Z,4.40
2022-12-19T16:30:44.753Z,4.40
2022-12-19T16:33:31.822Z,4.40
2022-12-19T16:36:18.420Z,4.40
2022-12-19T16:39:04.651Z,4.50
2022-12-19T16:41:52.414Z,4.50
2022-12-19T16:44:39.179Z,4.50
2022-12-19T16:47:25.790Z,4.40
2022-12-19T16:50:20.119Z,4.40
2022-12-19T16:53:06.421Z,4.50
2022-12-19T16:55:53.313Z,4.50
2022-12-19T16:58:43.316Z,4.50
2022-12-19T17:01:30.431Z,4.50
2022-12-19T17:04:19.178Z,4.60
2022-12-19T17:07:11.308Z,4.60
2022-12-19T17:09:57.669Z,4.60
2022-12-19T17:12:44.746Z,4.60
2022-12-19T17:15:35.326Z,4.60
2022-12-19T17:18:27.348Z,4.60
2022-12-19T17:21:17.839Z,4.60
2022-12-19T17:24:06.911Z,4.60
2022-12-19T17:26:53.548Z,4.60
2022-12-19T17:29:40.103Z,4.70
2022-12-19T17:32:28.075Z,4.60
2022-12-19T17:35:27.331Z,4.70
2022-12-19T17:38:15.659Z,4.70
2022-12-19T17:41:02.200Z,4.70
2022-12-19T17:43:50.053Z,4.70
2022-12-19T17:46:37.984Z,4.70
2022-12-19T17:49:30.086Z,4.80
2022-12-19T17:52:17.999Z,4.80
2022-12-19T17:55:15.274Z,4.70
2022-12-19T17:58:01.482Z,4.70
2022-12-19T18:00:54.830Z,4.70
2022-12-19T18:03:41.352Z,4.80
2022-12-19T18:06:29.826Z,4.80
2022-12-19T18:09:19.928Z,4.80
2022-12-19T18:12:06.692Z,4.90
2022-12-19T18:14:53.180Z,4.80
2022-12-19T18:17:40.809Z,4.90
2022-12-19T18:20:32.148Z,4.80
2022-12-19T18:23:22.369Z,4.80
2022-12-19T18:26:08.876Z,4.80
2022-12-19T18:28:55.391Z,4.90
2022-12-19T18:31:49.818Z,4.90
2022-12-19T18:34:37.430Z,4.90
2022-12-19T18:37:23.720Z,4.90
2022-12-19T18:40:23.327Z,4.90
2022-12-19T18:43:13.844Z,4.90
2022-12-19T18:46:00.441Z,4.90
2022-12-19T18:48:46.891Z,4.90
2022-12-19T18:51:34.187Z,4.90
2022-12-19T18:54:22.579Z,4.90
2022-12-19T18:57:14.476Z,4.90
2022-12-19T19:00:00.993Z,5.00
2022-12-19T19:02:53.151Z,4.90
2022-12-19T19:05:40.855Z,4.90
2022-12-19T19:11:15.031Z,5.00
2022-12-19T19:14:02.742Z,5.00
2022-12-19T19:16:49.492Z,5.00
2022-12-19T19:19:35.950Z,4.90
2022-12-19T19:22:22.353Z,4.90
2022-12-19T19:25:09.662Z,4.90
2022-12-19T19:27:57.019Z,4.80
2022-12-19T19:30:45.195Z,4.90
2022-12-19T19:33:34.709Z,4.70
2022-12-19T19:36:25.211Z,4.70
2022-12-19T19:39:13.881Z,4.80
2022-12-19T19:42:01.090Z,4.80
2022-12-19T19:44:47.653Z,4.70
2022-12-19T19:47:37.156Z,4.60
2022-12-19T19:50:24.551Z,4.60
2022-12-19T19:53:10.871Z,4.50
2022-12-19T19:55:57.515Z,4.50
2022-12-19T19:58:44.575Z,4.50
2022-12-19T20:01:31.466Z,4.50
2022-12-19T20:04:19.497Z,4.50
2022-12-19T20:07:06.324Z,4.50
2022-12-19T20:09:53.010Z,4.60
2022-12-19T20:12:39.573Z,4.60
2022-12-19T20:15:26.074Z,4.60
2022-12-19T20:18:12.460Z,4.60
2022-12-19T20:21:00.101Z,4.60
2022-12-19T20:23:46.873Z,4.60
2022-12-19T20:26:33.487Z,4.60
2022-12-19T20:29:20.547Z,4.70
2022-12-19T20:32:07.302Z,4.70
2022-12-19T20:34:53.765Z,4.70
2022-12-19T20:37:41.749Z,4.80
2022-12-19T20:40:27.901Z,4.90
2022-12-19T20:43:14.439Z,4.90
2022-12-19T20:46:06.670Z,5.00
2022-12-19T20:48:53.946Z,5.00
2022-12-19T20:51:40.323Z,5.00
2022-12-19T20:54:28.210Z,5.10
2022-12-19T20:57:14.438Z,5.20
2022-12-19T21:00:00.912Z,5.30
2022-12-19T21:03:25.895Z,5.20
2022-12-19T21:05:54.566Z,5.30
2022-12-19T21:08:41.226Z,5.10
2022-12-19T21:11:29.076Z,5.10
2022-12-19T21:14:15.419Z,5.00
2022-12-19T21:17:01.995Z,5.10
2022-12-19T21:19:48.220Z,5.10
2022-12-19T21:22:34.542Z,5.10
2022-12-19T21:25:21.013Z,5.10
2022-12-19T21:28:09.706Z,5.10
2022-12-19T21:31:00.046Z,5.10
2022-12-19T21:33:47.273Z,5.10
2022-12-19T21:36:33.597Z,5.10
2022-12-19T21:39:25.184Z,5.10
2022-12-19T21:42:11.666Z,5.10
2022-12-19T21:44:59.529Z,5.10
2022-12-19T21:47:45.925Z,5.10
2022-12-19T21:50:33.395Z,5.10
2022-12-19T21:53:19.706Z,5.10
2022-12-19T21:56:07.998Z,5.00
2022-12-19T21:58:56.137Z,5.10
2022-12-19T22:01:44.760Z,5.00
2022-12-19T22:04:31.597Z,5.00
2022-12-19T22:07:18.361Z,5.00
2022-12-19T22:10:05.269Z,5.10
2022-12-19T22:12:51.464Z,5.10
2022-12-19T22:15:37.934Z,5.10
2022-12-19T22:18:25.843Z,5.20
2022-12-19T22:21:14.576Z,5.20
2022-12-19T22:24:02.300Z,5.20
2022-12-19T22:26:48.663Z,5.20
2022-12-19T22:29:36.567Z,5.10
2022-12-19T22:32:22.992Z,5.00
2022-12-19T22:35:10.996Z,4.90
2022-12-19T22:37:57.793Z,4.90
2022-12-19T22:40:44.023Z,4.90
2022-12-19T22:43:30.871Z,4.90
2022-12-19T22:46:18.949Z,5.00
2022-12-19T22:49:08.600Z,5.00
2022-12-19T22:51:56.260Z,5.10
2022-12-19T22:54:42.543Z,5.10
2022-12-19T22:57:28.861Z,5.00
2022-12-19T23:00:15.855Z,5.00
2022-12-19T23:03:02.545Z,5.10
2022-12-19T23:05:52.009Z,5.20
2022-12-19T23:08:40.124Z,5.20
2022-12-19T23:11:28.590Z,5.20
2022-12-19T23:14:17.223Z,5.30
2022-12-19T23:17:03.570Z,5.30
2022-12-19T23:19:49.976Z,5.30
2022-12-19T23:22:36.237Z,5.30
2022-12-19T23:25:24.265Z,5.30
2022-12-19T23:28:11.209Z,5.30
2022-12-19T23:31:04.025Z,5.30
2022-12-19T23:33:50.380Z,5.40
2022-12-19T23:39:43.634Z,5.40
2022-12-19T23:42:31.343Z,5.40
2022-12-19T23:45:18.010Z,5.50
2022-12-19T23:48:04.849Z,5.50
2022-12-19T23:50:58.189Z,5.50
2022-12-19T23:53:44.918Z,5.40
2022-12-19T23:56:32.756Z,5.40
2022-12-19T23:59:20.681Z,5.40
